createdAt,value
2018-06-01T00:01:59.351Z,56.65
2018-06-01T00:04:32.404Z,57.32
2018-06-01T00:07:06.707Z,57.73
2018-06-01T00:09:37.231Z,57.55
2018-06-01T00:12:07.654Z,56.90
2018-06-01T00:14:38.348Z,56.26
2018-06-01T00:17:16.592Z,56.47
2018-06-01T00:19:46.739Z,56.44
2018-06-01T00:22:17.456Z,56.43
2018-06-01T00:24:47.954Z,56.67
2018-06-01T00:27:21.771Z,56.59
2018-06-01T00:29:52.494Z,56.30
2018-06-01T00:32:22.536Z,56.65
2018-06-01T00:34:52.658Z,56.45
2018-06-01T00:37:23.439Z,56.14
2018-06-01T00:39:54.401Z,56.27
2018-06-01T00:42:27.740Z,56.73
2018-06-01T00:44:59.302Z,57.11
2018-06-01T00:47:30.229Z,57.25
2018-06-01T00:50:01.281Z,57.28
2018-06-01T00:52:32.627Z,57.71
2018-06-01T00:55:40.033Z,57.77
2018-06-01T00:58:18.683Z,58.08
2018-06-01T01:00:52.126Z,58.32
2018-06-01T01:03:22.618Z,58.57
2018-06-01T01:05:53.188Z,58.98
2018-06-01T01:08:25.048Z,59.53
2018-06-01T01:10:56.215Z,59.80
2018-06-01T01:13:27.514Z,59.93
2018-06-01T01:16:06.148Z,60.27
2018-06-01T01:18:38.222Z,60.27
2018-06-01T01:21:09.581Z,60.24
2018-06-01T01:23:39.694Z,60.64
2018-06-01T01:26:10.637Z,60.55
2018-06-01T01:28:41.236Z,60.17
2018-06-01T01:31:24.552Z,60.18
2018-06-01T01:33:54.871Z,60.17
2018-06-01T01:36:25.215Z,60.46
2018-06-01T01:38:55.521Z,60.23
2018-06-01T01:41:25.589Z,59.94
2018-06-01T01:44:02.027Z,59.85
2018-06-01T01:46:32.599Z,59.96
2018-06-01T01:49:12.263Z,59.97
2018-06-01T01:51:42.860Z,59.75
2018-06-01T01:54:13.427Z,59.76
2018-06-01T01:56:45.974Z,60.00
2018-06-01T01:59:28.362Z,60.17
2018-06-01T02:02:00.565Z,59.99
2018-06-01T02:04:33.894Z,59.45
2018-06-01T02:07:07.051Z,59.05
2018-06-01T02:09:37.882Z,59.04
2018-06-01T02:12:08.490Z,59.43
2018-06-01T02:14:39.419Z,59.60
2018-06-01T02:17:10.201Z,59.82
2018-06-01T02:19:40.637Z,59.70
2018-06-01T02:22:11.489Z,59.44
2018-06-01T02:24:41.837Z,59.78
2018-06-01T02:27:14.852Z,59.86
2018-06-01T02:29:46.229Z,59.88
2018-06-01T02:32:16.592Z,60.14
2018-06-01T02:34:48.031Z,60.29
2018-06-01T02:37:18.425Z,59.95
2018-06-01T02:39:49.760Z,59.62
2018-06-01T02:42:20.185Z,59.71
2018-06-01T02:44:50.611Z,60.28
2018-06-01T02:47:23.315Z,60.45
2018-06-01T02:49:56.786Z,60.95
2018-06-01T02:52:28.344Z,61.55
2018-06-01T02:54:58.623Z,61.93
2018-06-01T02:57:31.507Z,61.85
2018-06-01T03:00:05.695Z,62.38
2018-06-01T03:02:36.870Z,62.70
2018-06-01T03:05:07.280Z,62.20
2018-06-01T03:07:38.601Z,61.96
2018-06-01T03:10:09.047Z,62.08
2018-06-01T03:12:39.517Z,62.38
2018-06-01T03:15:17.092Z,62.33
2018-06-01T03:17:47.191Z,62.63
2018-06-01T03:20:18.134Z,63.16
2018-06-01T03:22:48.539Z,63.23
2018-06-01T03:25:19.016Z,63.16
2018-06-01T03:27:50.040Z,63.43
2018-06-01T03:30:21.143Z,63.75
2018-06-01T03:32:51.408Z,63.61
2018-06-01T03:35:22.630Z,63.53
2018-06-01T03:37:53.432Z,63.24
2018-06-01T03:40:23.653Z,63.08
2018-06-01T03:42:54.182Z,63.33
2018-06-01T03:45:24.763Z,63.37
2018-06-01T03:47:55.529Z,63.44
2018-06-01T03:50:25.919Z,63.31
2018-06-01T03:52:56.285Z,63.08
2018-06-01T03:55:26.630Z,64.00
2018-06-01T03:57:56.827Z,64.49
2018-06-01T04:00:26.845Z,64.66
2018-06-01T04:02:58.002Z,64.73
2018-06-01T04:05:28.502Z,64.98
2018-06-01T04:07:59.455Z,64.94
2018-06-01T04:10:34.046Z,64.75
2018-06-01T04:13:04.427Z,64.48
2018-06-01T04:15:35.548Z,63.70
2018-06-01T04:18:06.516Z,62.96
2018-06-01T04:20:37.294Z,62.31
2018-06-01T04:23:08.146Z,62.10
2018-06-01T04:25:38.400Z,62.61
2018-06-01T04:28:08.661Z,63.00
2018-06-01T04:30:39.282Z,63.39
2018-06-01T04:33:09.519Z,65.89
2018-06-01T04:35:41.307Z,66.53
2018-06-01T04:38:11.844Z,66.49
2018-06-01T04:40:42.108Z,66.15
2018-06-01T04:43:15.975Z,66.15
2018-06-01T04:45:46.382Z,65.62
2018-06-01T04:48:17.151Z,65.84
2018-06-01T04:50:48.308Z,66.64
2018-06-01T04:53:18.894Z,66.98
2018-06-01T04:55:49.039Z,68.27
2018-06-01T04:58:20.786Z,70.53
2018-06-01T05:00:52.251Z,71.27
2018-06-01T05:03:24.388Z,71.25
2018-06-01T05:05:55.930Z,70.86
2018-06-01T05:08:26.238Z,72.85
2018-06-01T05:11:03.421Z,72.06
2018-06-01T05:13:43.939Z,71.09
2018-06-01T05:16:14.406Z,73.01
2018-06-01T05:18:44.818Z,74.16
2018-06-01T05:21:15.878Z,74.73
2018-06-01T05:23:48.175Z,74.79
2018-06-01T05:26:18.441Z,74.27
2018-06-01T05:28:49.471Z,74.17
2018-06-01T05:31:20.134Z,74.92
2018-06-01T05:33:51.516Z,74.34
2018-06-01T05:36:22.027Z,73.62
2018-06-01T05:39:02.746Z,73.02
2018-06-01T05:41:36.148Z,73.37
2018-06-01T05:44:15.188Z,72.73
2018-06-01T05:46:49.481Z,72.80
2018-06-01T05:49:20.553Z,72.40
2018-06-01T05:51:57.098Z,73.10
2018-06-01T05:54:29.920Z,73.12
2018-06-01T05:57:03.803Z,72.46
2018-06-01T05:59:37.261Z,71.65
2018-06-01T06:02:10.417Z,71.57
2018-06-01T06:04:43.784Z,72.19
2018-06-01T06:07:15.077Z,71.68
2018-06-01T06:09:46.425Z,71.28
2018-06-01T06:12:17.964Z,70.96
2018-06-01T06:14:49.638Z,71.11
2018-06-01T06:17:21.868Z,69.88
2018-06-01T06:19:52.372Z,69.82
2018-06-01T06:22:23.199Z,70.09
2018-06-01T06:24:54.851Z,69.87
2018-06-01T06:27:25.490Z,69.55
2018-06-01T06:29:56.190Z,69.60
2018-06-01T06:32:30.451Z,69.47
2018-06-01T06:35:04.018Z,69.00
2018-06-01T06:40:28.219Z,69.79
2018-06-01T06:43:01.510Z,69.55
2018-06-01T06:45:34.705Z,70.09
2018-06-01T06:48:05.886Z,71.06
2018-06-01T06:50:37.327Z,70.84
2018-06-01T06:53:09.672Z,71.34
2018-06-01T06:55:43.961Z,71.56
2018-06-01T06:58:14.847Z,71.11
2018-06-01T07:00:47.166Z,71.97
2018-06-01T07:03:17.571Z,72.24
2018-06-01T07:05:49.971Z,72.53
2018-06-01T07:08:25.132Z,72.34
2018-06-01T07:11:02.084Z,71.91
2018-06-01T07:13:33.355Z,71.57
2018-06-01T07:16:05.113Z,70.88
2018-06-01T07:18:37.711Z,70.87
2018-06-01T07:21:08.529Z,70.87
2018-06-01T07:23:38.921Z,71.38
2018-06-01T07:26:09.558Z,71.59
2018-06-01T07:28:40.275Z,71.25
2018-06-01T07:31:13.994Z,72.12
2018-06-01T07:33:47.120Z,71.48
2018-06-01T07:36:24.395Z,71.91
2018-06-01T07:38:59.077Z,71.10
2018-06-01T07:41:32.402Z,71.36
2018-06-01T07:44:03.918Z,71.62
2018-06-01T07:46:36.002Z,71.85
2018-06-01T07:49:07.212Z,70.77
2018-06-01T07:51:38.400Z,70.31
2018-06-01T07:54:22.338Z,69.55
2018-06-01T07:56:55.263Z,69.23
2018-06-01T07:59:27.254Z,68.67
2018-06-01T08:01:58.024Z,68.95
2018-06-01T08:04:28.992Z,70.32
2018-06-01T08:07:03.621Z,71.45
2018-06-01T08:09:42.436Z,73.25
2018-06-01T08:12:13.037Z,75.04
2018-06-01T08:14:48.852Z,75.35
2018-06-01T08:17:24.455Z,74.70
2018-06-01T08:19:58.377Z,74.04
2018-06-01T08:22:38.046Z,74.29
2018-06-01T08:25:09.493Z,74.82
2018-06-01T08:27:40.555Z,76.95
2018-06-01T08:30:32.597Z,77.83
2018-06-01T08:33:04.406Z,76.58
2018-06-01T08:35:35.445Z,75.51
2018-06-01T08:38:07.899Z,74.37
2018-06-01T08:40:39.579Z,73.83
2018-06-01T08:43:17.514Z,73.72
2018-06-01T08:45:51.679Z,73.00
2018-06-01T08:48:24.186Z,74.57
2018-06-01T08:50:57.472Z,73.61
2018-06-01T08:53:28.605Z,73.46
2018-06-01T08:56:12.866Z,73.32
2018-06-01T08:59:09.710Z,73.00
2018-06-01T09:01:50.805Z,73.87
2018-06-01T09:04:36.520Z,73.51
2018-06-01T09:07:10.343Z,73.87
2018-06-01T09:09:41.546Z,74.10
2018-06-01T09:12:23.332Z,74.23
2018-06-01T09:15:07.168Z,73.54
2018-06-01T09:17:47.152Z,73.50
2018-06-01T09:20:21.003Z,73.08
2018-06-01T09:22:52.658Z,72.77
2018-06-01T09:25:24.261Z,72.72
2018-06-01T09:30:57.070Z,71.34
2018-06-01T09:33:29.098Z,71.08
2018-06-01T09:38:47.426Z,71.94
2018-06-01T09:41:40.460Z,72.57
2018-06-01T09:44:52.249Z,72.53
2018-06-01T09:47:24.824Z,72.30
2018-06-01T09:50:06.135Z,72.24
2018-06-01T09:52:39.725Z,71.92
2018-06-01T09:55:16.921Z,71.81
2018-06-01T09:57:49.795Z,71.71
2018-06-01T10:00:26.309Z,71.32
2018-06-01T10:03:02.034Z,71.47
2018-06-01T10:05:32.681Z,71.42
2018-06-01T10:08:03.534Z,71.46
2018-06-01T10:10:37.543Z,72.29
2018-06-01T10:13:18.708Z,72.01
2018-06-01T10:15:49.941Z,71.79
2018-06-01T10:18:20.775Z,71.76
2018-06-01T10:20:51.238Z,71.50
2018-06-01T10:23:23.530Z,70.73
2018-06-01T10:25:56.219Z,70.41
2018-06-01T10:28:27.085Z,69.77
2018-06-01T10:30:57.837Z,70.39
2018-06-01T10:33:34.506Z,70.54
2018-06-01T10:36:13.347Z,70.23
2018-06-01T10:39:11.970Z,69.68
2018-06-01T10:41:53.729Z,69.16
2018-06-01T10:44:26.444Z,68.90
2018-06-01T10:46:58.975Z,69.99
2018-06-01T10:49:34.012Z,71.30
2018-06-01T10:52:10.710Z,71.00
2018-06-01T10:54:52.718Z,70.35
2018-06-01T10:57:41.258Z,70.39
2018-06-01T11:00:26.571Z,71.17
2018-06-01T11:03:10.051Z,71.84
2018-06-01T11:05:44.578Z,71.47
2018-06-01T11:08:22.557Z,70.96
2018-06-01T11:11:06.533Z,70.19
2018-06-01T11:13:44.988Z,70.57
2018-06-01T11:16:24.446Z,71.14
2018-06-01T11:19:01.296Z,70.72
2018-06-01T11:21:31.988Z,70.54
2018-06-01T11:24:04.168Z,71.05
2018-06-01T11:26:40.050Z,70.90
2018-06-01T11:29:19.410Z,69.13
2018-06-01T11:31:52.638Z,69.32
2018-06-01T11:34:31.890Z,69.48
2018-06-01T11:37:03.998Z,67.69
2018-06-01T11:39:39.455Z,66.47
2018-06-01T11:42:24.871Z,66.70
2018-06-01T11:44:58.202Z,66.30
2018-06-01T11:47:30.447Z,66.47
2018-06-01T11:50:01.750Z,66.75
2018-06-01T11:52:54.084Z,66.41
2018-06-01T11:55:25.159Z,66.46
2018-06-01T11:57:56.542Z,65.35
2018-06-01T12:00:45.772Z,65.24
2018-06-01T12:03:47.119Z,65.61
2018-06-01T12:06:30.240Z,65.23
2018-06-01T12:09:01.798Z,65.77
2018-06-01T12:11:40.420Z,66.07
2018-06-01T12:14:14.055Z,66.21
2018-06-01T12:16:46.885Z,65.22
2018-06-01T12:19:22.350Z,64.86
2018-06-01T12:21:57.734Z,65.21
2018-06-01T12:24:28.774Z,65.13
2018-06-01T12:27:01.793Z,64.11
2018-06-01T12:29:33.019Z,64.50
2018-06-01T12:32:09.727Z,64.27
2018-06-01T12:34:51.886Z,63.96
2018-06-01T12:37:26.000Z,64.17
2018-06-01T12:39:59.339Z,64.04
2018-06-01T12:42:31.027Z,64.08
2018-06-01T12:45:06.321Z,63.96
2018-06-01T12:47:37.338Z,64.09
2018-06-01T12:50:11.025Z,64.57
2018-06-01T12:52:42.346Z,63.91
2018-06-01T12:55:13.585Z,64.53
2018-06-01T12:57:58.246Z,65.40
2018-06-01T13:00:30.662Z,64.92
2018-06-01T13:03:02.832Z,65.02
2018-06-01T13:05:33.599Z,65.29
2018-06-01T13:08:05.711Z,64.45
2018-06-01T13:10:37.441Z,64.55
2018-06-01T13:13:18.346Z,64.69
2018-06-01T13:15:52.716Z,65.18
2018-06-01T13:18:24.791Z,65.43
2018-06-01T13:20:55.237Z,65.97
2018-06-01T13:23:28.776Z,66.77
2018-06-01T13:28:51.031Z,67.95
2018-06-01T13:31:28.349Z,68.60
2018-06-01T13:34:15.417Z,69.10
2018-06-01T13:36:47.440Z,69.33
2018-06-01T13:39:24.879Z,69.94
2018-06-01T13:41:57.641Z,70.61
2018-06-01T13:44:29.683Z,70.76
2018-06-01T13:47:02.682Z,71.43
2018-06-01T13:49:35.752Z,70.47
2018-06-01T13:52:22.122Z,70.58
2018-06-01T13:54:53.205Z,70.67
2018-06-01T13:57:26.604Z,70.72
2018-06-01T14:00:07.069Z,70.38
2018-06-01T14:09:07.117Z,71.18
2018-06-01T14:15:51.231Z,70.59
2018-06-01T14:18:21.850Z,70.65
2018-06-01T14:20:58.770Z,70.86
2018-06-01T14:23:30.764Z,71.29
2018-06-01T14:26:02.344Z,71.52
2018-06-01T14:28:34.080Z,71.20
2018-06-01T14:31:05.776Z,71.26
2018-06-01T14:33:37.048Z,71.55
2018-06-01T14:36:09.842Z,71.20
2018-06-01T14:38:41.047Z,72.18
2018-06-01T14:41:12.081Z,72.51
2018-06-01T14:43:44.372Z,72.48
2018-06-01T14:46:24.276Z,72.46
2018-06-01T14:48:56.511Z,73.15
2018-06-01T14:51:30.679Z,72.52
2018-06-01T14:54:02.370Z,72.24
2018-06-01T14:56:44.229Z,71.97
2018-06-01T14:59:18.071Z,73.17
2018-06-01T15:01:58.776Z,72.80
2018-06-01T15:07:30.115Z,72.82
2018-06-01T15:10:00.761Z,72.14
2018-06-01T15:12:33.367Z,72.26
2018-06-01T15:15:25.871Z,72.55
2018-06-01T15:17:57.819Z,72.60
2018-06-01T15:20:30.679Z,72.25
2018-06-01T15:23:02.536Z,72.43
2018-06-01T15:25:40.307Z,72.26
2018-06-01T15:28:18.726Z,73.21
2018-06-01T15:30:50.282Z,73.12
2018-06-01T15:33:21.627Z,72.83
2018-06-01T15:35:55.803Z,73.24
2018-06-01T15:38:39.256Z,72.66
2018-06-01T15:41:13.073Z,72.82
2018-06-01T15:43:44.827Z,72.52
2018-06-01T15:46:17.965Z,72.92
2018-06-01T15:58:00.677Z,72.26
2018-06-01T16:00:57.357Z,71.52
2018-06-01T16:03:53.942Z,71.81
2018-06-01T16:06:30.774Z,71.79
2018-06-01T16:09:25.620Z,70.90
2018-06-01T16:12:01.531Z,71.39
2018-06-01T16:17:37.843Z,70.96
2018-06-01T16:23:16.887Z,71.00
2018-06-01T16:26:08.457Z,70.19
2018-06-01T16:28:56.655Z,69.63
2018-06-01T16:34:48.091Z,70.41
2018-06-01T16:37:18.834Z,70.95
2018-06-01T16:39:50.985Z,70.57
2018-06-01T16:42:28.355Z,70.32
2018-06-01T16:44:58.975Z,70.56
2018-06-01T16:47:31.916Z,69.51
2018-06-01T16:50:08.771Z,69.01
2018-06-01T16:52:43.346Z,69.38
2018-06-01T16:55:16.368Z,70.14
2018-06-01T16:57:47.432Z,70.49
2018-06-01T17:00:21.092Z,70.48
2018-06-01T17:03:03.270Z,70.33
2018-06-01T17:05:38.116Z,69.56
2018-06-01T17:08:14.797Z,69.89
2018-06-01T17:10:52.389Z,69.67
2018-06-01T17:13:23.957Z,69.02
2018-06-01T17:16:05.036Z,69.02
2018-06-01T17:18:45.377Z,69.26
2018-06-01T17:21:25.873Z,68.76
2018-06-01T17:24:00.593Z,68.90
2018-06-01T17:26:42.572Z,69.01
2018-06-01T17:29:31.722Z,69.18
2018-06-01T17:32:08.565Z,69.27
2018-06-01T17:34:48.218Z,69.07
2018-06-01T17:37:21.682Z,68.49
2018-06-01T17:39:55.387Z,68.34
2018-06-01T17:42:30.124Z,68.14
2018-06-01T17:45:19.877Z,68.44
2018-06-01T17:47:53.293Z,68.28
2018-06-01T17:50:29.937Z,68.16
2018-06-01T17:53:01.689Z,68.82
2018-06-01T17:55:41.202Z,69.39
2018-06-01T17:58:17.879Z,69.43
2018-06-01T18:01:06.986Z,69.22
2018-06-01T18:03:55.461Z,69.63
2018-06-01T18:06:26.625Z,69.07
2018-06-01T18:08:59.844Z,69.36
2018-06-01T18:11:32.932Z,69.56
2018-06-01T18:14:09.616Z,70.00
2018-06-01T18:16:43.070Z,69.83
2018-06-01T18:19:15.144Z,69.85
2018-06-01T18:22:05.861Z,69.94
2018-06-01T18:24:40.502Z,69.86
2018-06-01T18:27:12.001Z,69.65
2018-06-01T18:29:42.898Z,69.54
2018-06-01T18:32:14.041Z,69.56
2018-06-01T18:34:47.410Z,69.45
2018-06-01T18:37:29.354Z,68.94
2018-06-01T18:40:00.545Z,68.70
2018-06-01T18:42:32.186Z,68.98
2018-06-01T18:45:06.411Z,69.27
2018-06-01T18:47:44.396Z,69.15
2018-06-01T18:50:22.023Z,69.28
2018-06-01T18:52:55.426Z,68.48
2018-06-01T18:55:26.465Z,68.60
2018-06-01T18:57:58.480Z,68.49
2018-06-01T19:00:32.750Z,68.54
2018-06-01T19:03:11.308Z,67.94
2018-06-01T19:05:43.246Z,68.58
2018-06-01T19:08:18.078Z,68.58
2018-06-01T19:10:48.972Z,68.57
2018-06-01T19:13:20.129Z,69.08
2018-06-01T19:15:52.657Z,69.70
2018-06-01T19:18:23.581Z,69.69
2018-06-01T19:20:54.417Z,69.55
2018-06-01T19:23:25.301Z,70.38
2018-06-01T19:26:00.399Z,70.24
2018-06-01T19:28:31.618Z,69.90
2018-06-01T19:31:06.815Z,69.79
2018-06-01T19:33:39.072Z,69.79
2018-06-01T19:36:11.256Z,69.83
2018-06-01T19:38:46.682Z,70.05
2018-06-01T19:41:20.204Z,70.04
2018-06-01T19:44:01.465Z,69.79
2018-06-01T19:46:33.132Z,69.78
2018-06-01T19:49:04.307Z,70.08
2018-06-01T19:51:35.345Z,70.34
2018-06-01T19:54:07.495Z,70.44
2018-06-01T19:56:43.681Z,70.74
2018-06-01T19:59:18.923Z,70.30
2018-06-01T20:01:55.517Z,70.76
2018-06-01T20:04:27.942Z,70.34
2018-06-01T20:06:59.931Z,70.06
2018-06-01T20:09:34.816Z,70.00
2018-06-01T20:12:11.037Z,70.52
2018-06-01T20:14:48.390Z,70.02
2018-06-01T20:17:27.688Z,69.73
2018-06-01T20:20:00.211Z,69.25
2018-06-01T20:22:32.158Z,69.45
2018-06-01T20:25:04.057Z,69.13
2018-06-01T20:27:37.492Z,68.89
2018-06-01T20:30:09.939Z,68.66
2018-06-01T20:32:44.760Z,68.37
2018-06-01T20:35:17.975Z,68.56
2018-06-01T20:37:53.616Z,68.39
2018-06-01T20:40:30.930Z,68.42
2018-06-01T20:43:09.853Z,69.25
2018-06-01T20:45:41.562Z,69.15
2018-06-01T20:54:37.086Z,69.19
2018-06-01T21:00:30.624Z,68.81
2018-06-01T21:03:01.233Z,68.55
2018-06-01T21:05:35.266Z,68.74
2018-06-01T21:08:08.373Z,69.10
2018-06-01T21:10:40.664Z,68.79
2018-06-01T21:13:12.403Z,69.12
2018-06-01T21:15:58.839Z,68.77
2018-06-01T21:18:32.169Z,69.10
2018-06-01T21:21:06.983Z,69.38
2018-06-01T21:23:39.282Z,69.56
2018-06-01T21:26:11.107Z,69.64
2018-06-01T21:28:43.094Z,69.29
2018-06-01T21:31:17.538Z,69.15
2018-06-01T21:33:48.257Z,69.17
2018-06-01T21:36:20.849Z,69.63
2018-06-01T21:38:53.375Z,69.63
2018-06-01T21:41:32.216Z,69.34
2018-06-01T21:44:07.371Z,69.51
2018-06-01T21:46:38.602Z,69.47
2018-06-01T21:49:15.025Z,69.24
2018-06-01T21:51:47.944Z,69.09
2018-06-01T21:54:22.809Z,69.07
2018-06-01T21:57:21.689Z,68.60
2018-06-01T21:59:53.920Z,68.01
2018-06-01T22:02:25.228Z,68.39
2018-06-01T22:05:05.067Z,68.33
2018-06-01T22:07:36.274Z,68.64
2018-06-01T22:10:10.275Z,68.45
2018-06-01T22:12:41.278Z,68.75
2018-06-01T22:15:16.031Z,68.95
2018-06-01T22:17:48.397Z,68.76
2018-06-01T22:20:19.412Z,68.82
2018-06-01T22:22:49.956Z,68.59
2018-06-01T22:25:21.744Z,68.93
2018-06-01T22:27:57.908Z,68.56
2018-06-01T22:30:30.293Z,68.24
2018-06-01T22:33:01.835Z,68.35
2018-06-01T22:35:32.286Z,68.00
2018-06-01T22:38:10.539Z,67.62
2018-06-01T22:40:41.438Z,68.09
2018-06-01T22:43:12.378Z,68.11
2018-06-01T22:45:44.264Z,68.30
2018-06-01T22:48:15.210Z,68.70
2018-06-01T22:50:45.613Z,68.80
2018-06-01T22:53:17.666Z,68.77
2018-06-01T22:55:48.883Z,68.35
2018-06-01T22:58:19.875Z,68.60
2018-06-01T23:00:50.860Z,68.52
2018-06-01T23:03:21.366Z,68.16
2018-06-01T23:05:52.693Z,68.20
2018-06-01T23:08:23.447Z,68.63
2018-06-01T23:10:56.190Z,68.89
2018-06-01T23:13:27.280Z,69.30
2018-06-01T23:16:02.153Z,69.39
2018-06-01T23:18:33.326Z,69.28
2018-06-01T23:21:09.680Z,68.99
2018-06-01T23:23:40.842Z,69.16
2018-06-01T23:26:11.731Z,69.08
2018-06-01T23:28:42.677Z,68.63
2018-06-01T23:31:18.517Z,68.48
2018-06-01T23:33:49.421Z,68.32
2018-06-01T23:36:20.217Z,68.44
2018-06-01T23:38:51.235Z,68.91
2018-06-01T23:41:21.637Z,69.63
2018-06-01T23:43:52.175Z,69.95
2018-06-01T23:46:24.339Z,70.21
2018-06-01T23:48:55.401Z,70.53
2018-06-01T23:51:25.845Z,70.28
2018-06-01T23:53:56.893Z,69.89
2018-06-01T23:56:27.497Z,70.12
2018-06-01T23:58:59.495Z,69.90
